Briefing drone pour Riom

Rechercher une autre localisation

Conditions de vol :


Nous sommes le : Mardi 13 avril 2021
Il est 17:16 UTC (19:16 LT)

Lever de soleil : 04:37 UTC (06:37 LT)
Coucher de soleil : 18:58 UTC (20:58 LT)

Météo

L'essentiel des conditions de vol

VIGILANCE MÉTÉO FRANCE - Puy-de-Dôme (63)
Pas de vigilances particulieres
METAR de LFLC
LFLC 131700Z AUTO 02009KT 9999 FEW042 OVC060 09/M01 Q1026 NOSIG

Date d'émission: 13/04/2021
Heure d'émission: 17:00 UTC
Vent: 020° pour 9 KT (17 km/h)
Visibilité horizontale: > 10 km
Plafond :
- Peu de nuages à 4200ft (1280m)
- Couvert à 6000ft (1829m)
Température: 9 °C
Point de rosée: -1 °C
Humidité: 50%
Pression (QNH): 1026 hPa
Conditions: Pas de changement dans les 2 heures (NOSIG)
TAF de LFLC
LFLC 131100Z 1312/1412 36012KT 9999 SCT055

Conditions prévues :

Heure d'émission : Bulletin éffectué le 13 à 12:00 UTC
Prévision : Valide du 13 a 12:00 UTC au 14 a 12:00 UTC
Vent : 360° pour 12 KT (22 km/h)
Visibilité : > 10 km
Nuages : Nuages eparts à 5500ft (1676 m)
WEBCAM POUR RIOM

Réglementation

Voler en sécurité

CARTES AERONAUTIQUE 1/500.000
CARTES VAC (LFLC)
SUP AIP




Chargement des AIP...
NOTAM (RIOM + Terrain à proximité / FIR )




Chargement des NOTAMS...
CONTACT PREFECTURE 63


Avertissement : Les données mises à disposition sont indicatives. Oxygène Drone ne pourra être tenu responsable de dégâts causés aux biens et aux personnes.